Time;durP1;ratioP1;P1;durP2;ratioP2;P2;SDS_P1;SDS_P2;PMS_P1;PMS_P2;Temp;Humidity;BMP_temperature;BMP_pressure;BME280_temperature;BME280_humidity;BME280_pressure;Samples;Min_cycle;Max_cycle;Signal;HPM_P1;HPM_P2
2022/01/15 00:04:32;;;;;;;2.23;1.20;;;17.60;65.50;;;;;;10487189;22;20235;-66
2022/01/15 00:09:55;;;;;;;1.87;1.20;;;17.60;65.60;;;;;;10489659;28;20215;-66
2022/01/15 00:15:23;;;;;;;2.47;1.20;;;17.50;65.50;;;;;;10495332;28;20591;-66
2022/01/15 00:20:45;;;;;;;3.17;1.63;;;17.60;65.50;;;;;;10462092;28;20756;-66
2022/01/15 00:26:08;;;;;;;1.73;1.30;;;17.60;65.40;;;;;;10483568;28;20230;-66
2022/01/15 00:31:34;;;;;;;2.20;1.40;;;17.60;65.50;;;;;;10491790;28;20211;-66
2022/01/15 00:36:56;;;;;;;2.60;1.00;;;17.50;65.40;;;;;;10492241;28;20263;-66
2022/01/15 00:42:18;;;;;;;3.67;1.70;;;17.50;65.20;;;;;;10498680;28;20204;-66
2022/01/15 00:47:42;;;;;;;2.53;1.20;;;17.60;65.30;;;;;;10500107;28;20223;-67
2022/01/15 00:53:04;;;;;;;2.97;1.63;;;17.50;65.20;;;;;;10498043;28;20219;-66
2022/01/15 00:58:26;;;;;;;1.90;1.17;;;17.60;65.30;;;;;;10498486;28;20196;-66
2022/01/15 01:03:50;;;;;;;1.33;0.90;;;17.60;65.30;;;;;;10491211;28;20228;-66
2022/01/15 01:09:13;;;;;;;2.60;1.30;;;17.60;65.20;;;;;;10527449;28;20212;-66
2022/01/15 01:20:27;;;;;;;1.87;0.90;;;17.50;65.20;;;;;;10523314;28;20179;-68
2022/01/15 01:25:55;;;;;;;1.90;1.00;;;17.50;65.10;;;;;;10525170;28;20212;-67
2022/01/15 01:31:26;;;;;;;1.80;1.00;;;17.50;65.10;;;;;;10494449;28;20299;-68
2022/01/15 01:36:58;;;;;;;1.50;1.00;;;17.50;65.10;;;;;;10498149;28;20733;-67
2022/01/15 01:42:39;;;;;;;2.13;1.30;;;17.50;65.10;;;;;;10498236;28;20189;-67
2022/01/15 01:48:01;;;;;;;1.47;0.90;;;17.50;65.10;;;;;;10497370;28;20205;-67
2022/01/15 01:53:25;;;;;;;1.50;1.00;;;17.50;65.10;;;;;;10496538;28;20220;-68
2022/01/15 01:58:47;;;;;;;1.57;0.77;;;17.50;65.00;;;;;;10489320;28;20192;-67
2022/01/15 02:04:09;;;;;;;2.17;1.27;;;17.50;65.10;;;;;;10458920;28;20236;-68
2022/01/15 02:09:33;;;;;;;2.13;1.10;;;17.50;65.10;;;;;;10455937;28;20222;-67
2022/01/15 02:14:55;;;;;;;2.70;1.20;;;17.50;65.00;;;;;;10479095;28;20568;-68
2022/01/15 02:26:17;;;;;;;2.10;1.20;;;17.50;65.10;;;;;;10489519;28;20221;-67
2022/01/15 02:31:39;;;;;;;1.97;1.10;;;17.50;65.00;;;;;;10497156;28;20290;-67
2022/01/15 02:37:03;;;;;;;3.03;1.10;;;17.50;65.00;;;;;;10496941;28;20604;-67
2022/01/15 02:42:28;;;;;;;2.37;1.03;;;17.50;64.90;;;;;;10495717;28;20192;-68
2022/01/15 02:48:03;;;;;;;1.50;0.93;;;17.50;64.90;;;;;;10520518;28;20214;-68
2022/01/15 02:53:26;;;;;;;1.20;0.90;;;17.50;64.90;;;;;;10505408;28;20741;-68
2022/01/15 02:58:48;;;;;;;3.20;1.33;;;17.50;64.90;;;;;;10521205;28;20200;-67
2022/01/15 03:04:10;;;;;;;1.73;1.00;;;17.50;64.80;;;;;;10496145;28;20220;-68
2022/01/15 03:09:34;;;;;;;1.07;0.77;;;17.50;64.90;;;;;;10492447;28;20216;-68
2022/01/15 03:15:00;;;;;;;1.00;0.73;;;17.50;64.90;;;;;;10493754;28;20223;-68
2022/01/15 03:20:22;;;;;;;2.13;1.20;;;17.50;64.90;;;;;;10492884;28;20184;-68
2022/01/15 03:25:46;;;;;;;2.83;1.20;;;17.50;64.90;;;;;;10486301;28;20213;-67
2022/01/15 03:31:09;;;;;;;1.30;0.90;;;17.50;64.80;;;;;;10494313;28;20223;-68
2022/01/15 03:36:31;;;;;;;1.33;0.97;;;17.50;64.80;;;;;;10486764;28;20670;-67
2022/01/15 03:41:54;;;;;;;1.50;1.10;;;17.50;64.80;;;;;;10495622;28;20679;-68
2022/01/15 03:47:18;;;;;;;1.37;0.90;;;17.50;64.80;;;;;;10494088;28;20223;-67
2022/01/15 03:52:40;;;;;;;1.40;1.00;;;17.50;64.80;;;;;;10492105;28;20192;-68
2022/01/15 03:58:04;;;;;;;2.30;1.00;;;17.50;64.80;;;;;;10513101;28;20204;-67
2022/01/15 04:03:26;;;;;;;0.80;0.60;;;17.50;64.70;;;;;;10492721;28;20224;-68
2022/01/15 04:08:48;;;;;;;1.70;0.90;;;17.50;64.70;;;;;;10493079;28;20212;-67
2022/01/15 04:14:12;;;;;;;2.27;1.00;;;17.50;64.70;;;;;;10490675;28;20219;-67
2022/01/15 04:19:35;;;;;;;1.53;1.10;;;17.50;64.70;;;;;;10492420;28;20571;-68
2022/01/15 04:24:57;;;;;;;1.30;0.67;;;17.50;64.60;;;;;;10486266;28;20688;-67
2022/01/15 04:30:22;;;;;;;1.30;0.80;;;17.50;64.60;;;;;;10493325;28;20212;-68
2022/01/15 04:35:44;;;;;;;2.10;0.80;;;17.50;64.70;;;;;;10492580;28;20221;-68
2022/01/15 04:41:07;;;;;;;1.43;0.80;;;17.50;64.60;;;;;;10492981;28;20565;-68
2022/01/15 04:46:31;;;;;;;1.13;0.67;;;17.50;65.20;;;;;;10450959;28;20208;-68
2022/01/15 04:51:53;;;;;;;0.77;0.60;;;17.50;64.60;;;;;;10467059;28;20216;-68
2022/01/15 04:57:15;;;;;;;1.47;0.73;;;17.50;64.60;;;;;;10491614;28;20208;-67
2022/01/15 05:02:38;;;;;;;1.53;0.80;;;17.50;64.60;;;;;;10490326;28;20205;-67
2022/01/15 05:08:02;;;;;;;1.27;0.80;;;17.50;64.60;;;;;;10491697;28;20553;-67
2022/01/15 05:13:28;;;;;;;0.80;0.60;;;17.50;64.60;;;;;;10491609;28;20569;-67
2022/01/15 05:18:51;;;;;;;1.50;1.00;;;17.50;64.60;;;;;;10491338;28;20180;-67
2022/01/15 05:24:13;;;;;;;1.60;0.80;;;17.50;64.60;;;;;;10489598;28;20227;-66
2022/01/15 05:29:35;;;;;;;1.83;0.90;;;17.50;64.60;;;;;;10508796;28;20582;-67
2022/01/15 05:35:00;;;;;;;0.60;0.60;;;17.50;64.50;;;;;;10540123;28;20230;-67
2022/01/15 05:40:22;;;;;;;1.00;0.77;;;17.50;64.50;;;;;;10539991;28;20196;-67
2022/01/15 05:45:45;;;;;;;0.87;0.70;;;17.50;64.50;;;;;;10508481;28;20591;-67
2022/01/15 05:51:08;;;;;;;1.13;0.73;;;17.50;64.50;;;;;;10495199;28;20600;-67
2022/01/15 05:56:31;;;;;;;0.60;0.60;;;17.50;64.50;;;;;;10499266;28;20216;-67
2022/01/15 06:01:53;;;;;;;1.07;0.43;;;17.50;64.50;;;;;;10483175;28;20197;-67
2022/01/15 06:07:16;;;;;;;0.83;0.50;;;17.60;64.50;;;;;;10457630;28;20221;-66
2022/01/15 06:12:43;;;;;;;0.90;0.57;;;17.60;64.50;;;;;;10456951;28;20681;-67
2022/01/15 06:18:05;;;;;;;0.90;0.90;;;17.60;64.50;;;;;;10490458;28;20668;-67
2022/01/15 06:23:28;;;;;;;0.40;0.40;;;17.50;64.50;;;;;;10501633;28;20213;-66
2022/01/15 06:28:50;;;;;;;0.97;0.50;;;17.60;64.50;;;;;;10497080;28;20714;-67
2022/01/15 06:34:12;;;;;;;0.80;0.70;;;17.60;64.40;;;;;;10495910;28;20235;-67
2022/01/15 06:39:36;;;;;;;0.70;0.50;;;17.60;64.40;;;;;;10495215;28;20189;-67
2022/01/15 06:44:58;;;;;;;1.43;0.50;;;17.50;64.30;;;;;;10492073;28;20219;-66
2022/01/15 06:50:22;;;;;;;0.80;0.63;;;17.60;64.40;;;;;;10495699;28;20227;-67
2022/01/15 06:55:49;;;;;;;0.90;0.57;;;17.50;64.30;;;;;;10494830;28;20222;-67
2022/01/15 07:01:11;;;;;;;0.93;0.60;;;17.50;64.30;;;;;;10493984;28;20192;-66
2022/01/15 07:06:33;;;;;;;0.40;0.40;;;17.60;64.40;;;;;;10494005;28;20228;-67
2022/01/15 07:11:56;;;;;;;1.10;0.70;;;17.50;64.30;;;;;;10494678;28;20705;-67
2022/01/15 07:17:19;;;;;;;0.60;0.60;;;17.60;64.40;;;;;;10493596;28;20208;-66
2022/01/15 07:22:42;;;;;;;0.60;0.60;;;17.60;64.40;;;;;;10492641;28;20185;-67
2022/01/15 07:28:05;;;;;;;1.17;0.60;;;17.60;64.40;;;;;;10494234;28;20203;-67
2022/01/15 07:33:27;;;;;;;1.17;0.50;;;17.50;64.30;;;;;;10492464;28;20220;-66
2022/01/15 07:38:50;;;;;;;1.53;1.43;;;17.60;64.40;;;;;;10492640;28;20196;-67
2022/01/15 07:44:13;;;;;;;0.77;0.60;;;17.50;60.00;;;;;;10489631;28;20872;-67
2022/01/15 07:49:35;;;;;;;0.40;0.40;;;17.50;62.70;;;;;;10483508;28;20239;-67
2022/01/15 07:55:00;;;;;;;1.50;0.80;;;17.50;63.50;;;;;;10494795;28;20212;-67
2022/01/15 08:00:23;;;;;;;1.50;0.73;;;17.50;63.60;;;;;;10492821;28;20195;-67
2022/01/15 08:05:45;;;;;;;1.10;0.60;;;17.50;63.60;;;;;;10492762;28;20224;-67
2022/01/15 08:11:08;;;;;;;1.47;0.80;;;17.50;63.70;;;;;;10489212;28;20212;-66
2022/01/15 08:16:31;;;;;;;1.20;0.70;;;17.50;63.70;;;;;;10494211;28;20287;-67
2022/01/15 08:21:53;;;;;;;0.77;0.53;;;17.50;63.80;;;;;;10492945;28;20234;-67
2022/01/15 08:27:16;;;;;;;0.60;0.60;;;17.50;63.70;;;;;;10489302;28;20219;-67
2022/01/15 08:32:39;;;;;;;0.67;0.50;;;17.50;63.80;;;;;;10533890;28;20219;-67
2022/01/15 08:38:02;;;;;;;0.60;0.60;;;17.50;63.80;;;;;;10492627;28;20193;-66
2022/01/15 08:43:24;;;;;;;1.10;0.70;;;17.50;63.70;;;;;;10490356;28;20714;-67
2022/01/15 08:48:48;;;;;;;0.80;0.60;;;17.50;63.70;;;;;;10486899;28;20219;-67
2022/01/15 08:54:10;;;;;;;0.50;0.50;;;17.60;63.80;;;;;;10488062;28;20338;-66
2022/01/15 08:59:33;;;;;;;0.83;0.57;;;17.60;64.30;;;;;;10534538;28;20574;-67
2022/01/15 09:04:56;;;;;;;4.38;0.90;;;17.60;64.00;;;;;;10537927;28;20412;-67
2022/01/15 09:10:19;;;;;;;2.07;0.80;;;18.50;60.50;;;;;;10540147;28;20219;-66
2022/01/15 09:15:41;;;;;;;3.77;0.80;;;17.90;62.20;;;;;;10494714;28;20678;-66
2022/01/15 09:21:04;;;;;;;1.33;0.80;;;17.70;62.90;;;;;;10498641;28;20196;-66
2022/01/15 09:26:46;;;;;;;1.27;0.57;;;17.60;63.20;;;;;;10498140;28;20687;-67
2022/01/15 09:32:09;;;;;;;2.47;0.60;;;17.60;63.50;;;;;;10497256;28;20568;-66
2022/01/15 09:37:32;;;;;;;0.77;0.60;;;17.60;63.80;;;;;;10497123;28;20220;-66
2022/01/15 09:42:56;;;;;;;1.43;0.80;;;17.60;64.00;;;;;;10498162;28;20193;-67
2022/01/15 09:48:20;;;;;;;1.10;0.60;;;17.60;64.10;;;;;;10493179;28;20269;-66
2022/01/15 09:53:43;;;;;;;2.23;0.80;;;17.60;64.20;;;;;;10499849;28;20219;-66
2022/01/15 09:59:06;;;;;;;3.03;0.90;;;17.60;64.20;;;;;;10511454;22;20600;-69
2022/01/15 10:04:29;;;;;;;0.90;0.53;;;18.40;61.40;;;;;;10454458;28;20975;-69
2022/01/15 10:09:52;;;;;;;0.90;0.60;;;17.90;63.00;;;;;;10453315;28;20223;-68
2022/01/15 10:15:16;;;;;;;3.30;0.73;;;17.70;63.60;;;;;;10469212;28;20693;-67
2022/01/15 10:20:38;;;;;;;1.67;0.70;;;17.70;63.70;;;;;;10458928;28;20202;-68
2022/01/15 10:26:17;;;;;;;1.40;0.90;;;17.60;63.80;;;;;;10453192;28;20228;-67
2022/01/15 10:31:41;;;;;;;1.63;0.67;;;17.60;63.60;;;;;;10452480;28;20217;-69
2022/01/15 10:37:07;;;;;;;0.70;0.63;;;17.60;63.80;;;;;;10474292;28;20317;-66
2022/01/15 10:42:31;;;;;;;1.70;1.00;;;17.60;63.80;;;;;;10493936;28;20196;-65
2022/01/15 10:47:56;;;;;;;1.87;0.90;;;17.60;63.90;;;;;;10488064;28;20223;-65
2022/01/15 10:53:18;;;;;;;1.70;1.07;;;17.60;63.90;;;;;;10466371;28;20220;-65
2022/01/15 10:58:43;;;;;;;1.33;1.10;;;17.60;63.90;;;;;;10481889;28;20582;-67
2022/01/15 11:04:11;;;;;;;2.30;0.90;;;17.60;63.90;;;;;;10493243;28;20220;-69
2022/01/15 11:09:34;;;;;;;2.80;1.40;;;17.60;63.90;;;;;;10459114;28;20292;-66
2022/01/15 11:14:58;;;;;;;1.60;1.10;;;17.60;63.90;;;;;;10468881;28;20216;-65
2022/01/15 11:20:23;;;;;;;2.03;1.10;;;17.60;64.00;;;;;;10481950;28;20215;-67
2022/01/15 11:25:46;;;;;;;3.97;1.17;;;17.60;64.00;;;;;;10498747;28;20232;-65
2022/01/15 11:31:12;;;;;;;3.93;1.50;;;17.60;63.90;;;;;;10502566;28;20215;-66
2022/01/15 11:36:36;;;;;;;6.53;3.97;;;17.70;63.80;;;;;;10512282;28;20427;-66
2022/01/15 11:42:00;;;;;;;5.93;3.60;;;17.70;59.50;;;;;;10499364;28;20393;-67
2022/01/15 11:47:25;;;;;;;5.97;4.50;;;17.50;58.40;;;;;;10495254;28;20279;-65
2022/01/15 11:52:48;;;;;;;7.50;4.20;;;17.40;59.10;;;;;;10523315;28;20217;-67
2022/01/15 11:58:14;;;;;;;5.77;3.00;;;17.40;58.40;;;;;;10524002;28;20227;-65
2022/01/15 12:03:40;;;;;;;4.43;3.73;;;17.50;59.00;;;;;;10506819;28;20303;-64
2022/01/15 12:09:31;;;;;;;6.13;4.30;;;17.50;57.30;;;;;;10521107;28;20215;-65
2022/01/15 12:14:58;;;;;;;8.83;4.07;;;17.50;56.60;;;;;;10526244;28;20857;-65
2022/01/15 12:20:36;;;;;;;7.37;4.60;;;17.40;56.70;;;;;;10529231;28;20187;-66
2022/01/15 12:25:58;;;;;;;9.17;5.80;;;17.40;56.30;;;;;;10498014;28;20223;-65
2022/01/15 12:31:20;;;;;;;7.43;5.57;;;17.40;56.40;;;;;;10472465;28;20228;-65
2022/01/15 12:36:48;;;;;;;7.60;5.20;;;17.30;55.70;;;;;;10487689;28;20221;-65
2022/01/15 12:42:12;;;;;;;9.47;5.20;;;17.30;55.10;;;;;;10533704;28;20188;-65
2022/01/15 12:47:46;;;;;;;9.80;5.73;;;17.20;54.90;;;;;;10469115;28;20286;-65
2022/01/15 12:53:10;;;;;;;6.47;4.27;;;17.20;54.70;;;;;;10490045;28;20247;-66
2022/01/15 12:58:32;;;;;;;7.00;3.80;;;17.20;55.10;;;;;;10499000;28;20661;-67
2022/01/15 13:03:54;;;;;;;6.60;3.63;;;17.10;55.30;;;;;;10509299;28;20212;-67
2022/01/15 13:09:18;;;;;;;7.90;3.80;;;17.20;55.60;;;;;;10531655;28;20219;-66
2022/01/15 13:14:43;;;;;;;6.33;3.37;;;17.20;55.70;;;;;;10538859;28;20231;-68
2022/01/15 13:20:24;;;;;;;5.67;3.07;;;17.20;55.70;;;;;;10481818;28;20195;-66
2022/01/15 13:25:49;;;;;;;5.17;3.13;;;17.20;55.80;;;;;;10496651;28;20227;-65
2022/01/15 13:31:11;;;;;;;6.50;3.10;;;17.10;55.40;;;;;;10504590;28;20304;-65
2022/01/15 13:36:34;;;;;;;11.13;3.73;;;17.10;55.20;;;;;;10489746;28;20291;-66
2022/01/15 13:41:57;;;;;;;7.40;3.00;;;17.10;55.00;;;;;;10494440;28;20204;-66
2022/01/15 13:47:20;;;;;;;7.47;3.43;;;17.10;54.90;;;;;;10494075;28;20215;-65
2022/01/15 13:58:26;;;;;;;14.20;5.50;;;17.60;52.80;;;;;;10508080;28;20280;-64
2022/01/15 14:03:50;;;;;;;9.90;4.63;;;17.20;53.70;;;;;;10536691;28;20198;-64
2022/01/15 14:09:15;;;;;;;7.77;4.00;;;17.00;54.10;;;;;;10519190;28;20207;-64
2022/01/15 14:14:53;;;;;;;11.10;3.93;;;17.00;54.10;;;;;;10524035;28;20241;-68
2022/01/15 14:20:39;;;;;;;9.57;3.90;;;16.90;53.20;;;;;;10519882;28;20195;-65
2022/01/15 14:26:15;;;;;;;8.87;3.50;;;16.90;53.20;;;;;;10481601;28;20212;-65
2022/01/15 14:31:39;;;;;;;10.07;3.57;;;16.90;52.70;;;;;;10525638;28;20625;-64
2022/01/15 14:37:01;;;;;;;11.90;3.40;;;16.90;52.70;;;;;;10525155;28;20215;-66
2022/01/15 14:42:24;;;;;;;8.43;3.63;;;16.90;52.50;;;;;;10485144;28;20578;-67
2022/01/15 14:47:51;;;;;;;10.27;4.30;;;16.90;52.60;;;;;;10493610;28;20219;-65
2022/01/15 14:53:13;;;;;;;12.37;3.87;;;16.90;52.70;;;;;;10472237;28;20217;-65
2022/01/15 14:58:35;;;;;;;7.17;3.13;;;16.90;52.70;;;;;;10485460;28;20207;-65
2022/01/15 15:04:00;;;;;;;8.97;3.73;;;16.80;52.60;;;;;;10514983;28;20230;-65
2022/01/15 15:09:22;;;;;;;5.90;3.00;;;16.80;52.70;;;;;;10502929;28;20577;-67
2022/01/15 15:14:45;;;;;;;4.83;2.27;;;16.90;55.80;;;;;;10510873;28;20246;-65
2022/01/15 15:20:10;;;;;;;4.27;2.57;;;17.00;57.10;;;;;;10507703;28;20188;-65
2022/01/15 15:25:32;;;;;;;4.70;2.60;;;17.10;57.40;;;;;;10471549;28;20224;-65
2022/01/15 15:30:54;;;;;;;4.67;2.10;;;17.10;58.20;;;;;;10522760;28;20234;-66
2022/01/15 15:36:18;;;;;;;5.37;2.20;;;17.10;58.50;;;;;;10493056;28;20227;-65
2022/01/15 15:41:42;;;;;;;4.90;1.93;;;17.20;58.80;;;;;;10528355;28;20223;-65
2022/01/15 15:47:05;;;;;;;4.60;1.97;;;17.20;59.00;;;;;;10531261;28;20222;-66
2022/01/15 15:52:29;;;;;;;4.90;2.50;;;17.20;59.10;;;;;;10481461;28;20216;-65
2022/01/15 15:57:51;;;;;;;3.63;2.00;;;17.30;59.30;;;;;;10485340;28;20224;-68
2022/01/15 16:03:13;;;;;;;4.53;2.40;;;17.30;59.40;;;;;;10475868;22;20224;-69
2022/01/15 16:08:37;;;;;;;10.07;2.40;;;17.30;59.50;;;;;;10434239;28;20201;-70
2022/01/15 16:14:00;;;;;;;3.93;2.17;;;17.30;59.60;;;;;;10441966;28;20485;-70
2022/01/15 16:19:22;;;;;;;4.60;2.33;;;17.30;60.30;;;;;;10446557;28;20200;-70
2022/01/15 16:24:45;;;;;;;3.70;2.07;;;17.30;59.80;;;;;;10445812;28;20858;-70
2022/01/15 16:30:08;;;;;;;4.23;2.00;;;17.30;59.80;;;;;;10448034;28;20220;-70
2022/01/15 16:35:31;;;;;;;2.90;1.77;;;17.30;60.00;;;;;;10449227;28;20721;-70
2022/01/15 16:40:55;;;;;;;4.37;2.37;;;17.40;60.10;;;;;;10432760;28;20193;-70
2022/01/15 16:46:17;;;;;;;3.90;2.10;;;17.40;60.10;;;;;;10443258;28;20225;-69
2022/01/15 16:51:40;;;;;;;4.20;2.10;;;17.40;60.20;;;;;;10449222;28;20228;-70
2022/01/15 16:57:04;;;;;;;3.10;1.90;;;17.40;60.30;;;;;;10448617;28;20686;-70
2022/01/15 17:02:26;;;;;;;4.67;2.00;;;17.40;60.30;;;;;;10414575;28;20197;-68
2022/01/15 17:07:49;;;;;;;4.67;2.17;;;17.40;60.50;;;;;;10406454;28;20583;-73
2022/01/15 17:13:12;;;;;;;3.73;2.03;;;17.40;60.50;;;;;;10406384;28;20707;-72
2022/01/15 17:18:34;;;;;;;3.53;2.00;;;17.40;60.50;;;;;;10431937;28;20670;-73
2022/01/15 17:23:57;;;;;;;3.70;2.20;;;17.40;60.60;;;;;;10407721;28;20210;-72
2022/01/15 17:29:21;;;;;;;2.67;1.93;;;17.40;60.60;;;;;;10432400;28;20275;-71
2022/01/15 17:34:43;;;;;;;3.43;1.80;;;17.40;60.70;;;;;;10419061;28;20229;-70
2022/01/15 17:40:08;;;;;;;4.27;2.00;;;17.40;60.70;;;;;;10410142;28;20300;-71
2022/01/15 17:45:32;;;;;;;4.17;2.00;;;17.40;60.80;;;;;;10441288;28;20221;-64
2022/01/15 17:50:54;;;;;;;5.40;2.07;;;17.40;60.80;;;;;;10414292;28;20301;-67
2022/01/15 17:56:16;;;;;;;4.37;2.07;;;17.40;60.90;;;;;;10414330;28;20233;-67
2022/01/15 18:01:40;;;;;;;3.33;1.70;;;17.40;60.90;;;;;;10417853;28;20198;-67
2022/01/15 18:07:03;;;;;;;2.93;2.00;;;17.40;61.00;;;;;;10411691;28;20296;-66
2022/01/15 18:12:25;;;;;;;3.17;1.93;;;17.40;61.00;;;;;;10410346;28;20222;-71
2022/01/15 18:17:48;;;;;;;2.50;1.83;;;17.40;61.10;;;;;;10417978;28;20677;-70
2022/01/15 18:23:11;;;;;;;3.33;1.83;;;17.40;61.10;;;;;;10453197;28;20563;-71
2022/01/15 18:28:34;;;;;;;2.93;1.97;;;17.40;61.20;;;;;;10420510;28;20208;-69
2022/01/15 18:33:59;;;;;;;3.23;1.70;;;17.40;61.20;;;;;;10442151;28;20213;-69
2022/01/15 18:39:21;;;;;;;2.87;1.90;;;17.40;61.20;;;;;;10432676;28;20201;-68
2022/01/15 18:44:43;;;;;;;2.73;1.93;;;17.50;61.30;;;;;;10432314;28;20217;-67
2022/01/15 18:50:08;;;;;;;1.80;1.60;;;17.40;61.30;;;;;;10429178;28;20189;-68
2022/01/15 18:55:31;;;;;;;3.43;1.70;;;17.50;61.40;;;;;;10428562;28;20217;-68
2022/01/15 19:00:53;;;;;;;3.83;2.07;;;17.40;61.30;;;;;;10430829;28;20201;-66
2022/01/15 19:06:16;;;;;;;1.77;1.50;;;17.50;61.40;;;;;;10407928;28;20223;-65
2022/01/15 19:11:38;;;;;;;2.67;1.80;;;17.50;61.50;;;;;;10416024;28;20213;-65
2022/01/15 19:17:01;;;;;;;4.23;1.77;;;17.50;61.50;;;;;;10439675;28;20225;-66
2022/01/15 19:22:24;;;;;;;2.87;1.80;;;17.40;61.50;;;;;;10426841;28;20194;-65
2022/01/15 19:27:47;;;;;;;2.90;2.00;;;17.50;61.60;;;;;;10404484;28;20240;-65
2022/01/15 19:33:09;;;;;;;2.67;1.67;;;17.50;61.60;;;;;;10437104;28;20303;-66
2022/01/15 19:38:34;;;;;;;3.17;1.97;;;17.50;61.70;;;;;;10405059;28;20596;-65
2022/01/15 19:43:56;;;;;;;3.43;2.00;;;17.50;61.70;;;;;;10403962;28;20297;-66
2022/01/15 19:49:19;;;;;;;2.30;1.47;;;17.50;61.70;;;;;;10402411;28;20206;-65
2022/01/15 19:54:43;;;;;;;3.23;1.80;;;17.50;61.70;;;;;;10405343;28;20217;-66
2022/01/15 20:00:08;;;;;;;2.50;1.90;;;17.50;61.70;;;;;;10415744;28;20690;-65
2022/01/15 20:05:30;;;;;;;2.20;1.37;;;17.50;61.80;;;;;;10420420;28;20225;-65
2022/01/15 20:10:55;;;;;;;3.10;1.63;;;17.50;61.80;;;;;;10425975;28;20228;-65
2022/01/15 20:16:17;;;;;;;2.77;1.60;;;17.50;61.80;;;;;;10415270;28;20598;-68
2022/01/15 20:21:40;;;;;;;2.03;1.70;;;17.50;61.80;;;;;;10411456;28;20201;-67
2022/01/15 20:27:04;;;;;;;1.70;1.27;;;17.50;61.80;;;;;;10405902;28;20209;-68
2022/01/15 20:32:26;;;;;;;3.00;1.77;;;17.50;61.80;;;;;;10441825;28;20785;-68
2022/01/15 20:37:50;;;;;;;2.77;1.67;;;17.50;61.90;;;;;;10411429;28;20686;-68
2022/01/15 20:43:13;;;;;;;2.00;1.57;;;17.50;61.90;;;;;;10426238;28;20193;-68
2022/01/15 20:48:35;;;;;;;2.10;1.43;;;17.50;61.90;;;;;;10412619;28;20206;-66
2022/01/15 20:53:57;;;;;;;2.50;1.67;;;17.50;61.90;;;;;;10419953;28;20225;-68
2022/01/15 20:59:21;;;;;;;2.00;1.30;;;17.50;61.90;;;;;;10415747;28;20559;-68
2022/01/15 21:04:43;;;;;;;1.33;1.20;;;17.50;62.00;;;;;;10433840;28;20216;-68
2022/01/15 21:10:07;;;;;;;2.67;1.53;;;17.50;62.00;;;;;;10428271;28;20269;-68
2022/01/15 21:15:30;;;;;;;2.13;1.50;;;17.50;62.00;;;;;;10418887;28;20217;-67
2022/01/15 21:20:52;;;;;;;2.10;1.53;;;17.50;62.00;;;;;;10448303;28;20201;-69
2022/01/15 21:26:15;;;;;;;2.27;1.13;;;17.50;62.00;;;;;;10455026;28;20217;-67
2022/01/15 21:31:38;;;;;;;1.30;1.20;;;17.50;62.00;;;;;;10456012;28;20698;-67
2022/01/15 21:37:00;;;;;;;2.63;1.60;;;17.50;62.00;;;;;;10446021;28;20618;-68
2022/01/15 21:42:23;;;;;;;1.33;1.23;;;17.50;62.00;;;;;;10425499;28;20663;-68
2022/01/15 21:47:46;;;;;;;2.00;1.30;;;17.50;62.00;;;;;;10414265;28;20213;-67
2022/01/15 21:53:08;;;;;;;2.47;1.30;;;17.50;62.00;;;;;;10430072;28;20600;-69
2022/01/15 21:58:30;;;;;;;2.00;1.40;;;17.50;62.00;;;;;;10442241;28;20209;-68
2022/01/15 22:03:54;;;;;;;1.57;1.17;;;17.50;62.00;;;;;;10504622;22;20232;-72
2022/01/15 22:09:16;;;;;;;2.07;1.40;;;17.40;62.00;;;;;;10492214;28;20207;-72
2022/01/15 22:14:38;;;;;;;1.57;1.43;;;17.40;62.10;;;;;;10464575;28;20746;-72
2022/01/15 22:20:02;;;;;;;1.20;1.00;;;17.40;62.10;;;;;;10490252;28;20200;-71
2022/01/15 22:25:24;;;;;;;1.43;1.30;;;17.40;62.10;;;;;;10481769;28;20192;-72
2022/01/15 22:30:48;;;;;;;1.90;1.40;;;17.40;62.10;;;;;;10491450;28;20217;-71
2022/01/15 22:36:12;;;;;;;1.60;1.23;;;17.40;62.10;;;;;;10492449;28;20204;-72
2022/01/15 22:41:34;;;;;;;2.10;1.30;;;17.50;62.20;;;;;;10475687;28;20216;-72
2022/01/15 22:46:57;;;;;;;1.27;1.17;;;17.40;62.10;;;;;;10495049;28;20211;-71
2022/01/15 22:52:21;;;;;;;1.60;1.10;;;17.40;62.20;;;;;;10483057;28;20227;-71
2022/01/15 22:57:43;;;;;;;1.70;1.50;;;17.40;62.10;;;;;;10485293;28;20571;-72
2022/01/15 23:03:06;;;;;;;1.40;1.20;;;17.40;62.20;;;;;;10483010;28;20220;-72
2022/01/15 23:08:30;;;;;;;1.57;1.20;;;17.40;62.20;;;;;;10466978;28;20205;-72
2022/01/15 23:14:00;;;;;;;0.97;0.90;;;17.40;62.10;;;;;;10485516;28;20216;-72
2022/01/15 23:19:24;;;;;;;2.40;1.30;;;17.40;62.20;;;;;;10490330;28;20189;-72
2022/01/15 23:24:47;;;;;;;1.33;1.20;;;17.40;62.20;;;;;;10488282;28;20217;-72
2022/01/15 23:30:10;;;;;;;1.40;1.30;;;17.40;62.20;;;;;;10484626;28;20608;-71
2022/01/15 23:35:33;;;;;;;1.53;1.20;;;17.40;62.20;;;;;;10482054;28;20215;-72
2022/01/15 23:40:57;;;;;;;1.80;1.13;;;17.40;62.20;;;;;;10487391;28;20295;-72
2022/01/15 23:46:22;;;;;;;2.33;1.13;;;17.40;62.20;;;;;;10494930;28;20694;-72
2022/01/15 23:51:45;;;;;;;1.27;1.17;;;17.40;62.20;;;;;;10489616;28;20278;-72
2022/01/15 23:57:09;;;;;;;1.40;1.30;;;17.40;62.20;;;;;;10477590;28;20204;-73
